createdAt,value
2023-02-18T00:00:20.824Z,17.20
2023-02-18T00:01:19.801Z,17.23
2023-02-18T00:02:20.828Z,17.20
2023-02-18T00:03:20.851Z,17.24
2023-02-18T00:04:20.801Z,17.24
2023-02-18T00:05:19.829Z,17.26
2023-02-18T00:06:20.828Z,17.29
2023-02-18T00:07:19.865Z,17.30
2023-02-18T00:08:20.887Z,17.29
2023-02-18T00:09:20.882Z,17.31
2023-02-18T00:10:20.893Z,17.26
2023-02-18T00:11:20.873Z,17.31
2023-02-18T00:12:20.908Z,17.33
2023-02-18T00:13:20.924Z,17.33
2023-02-18T00:14:20.908Z,17.36
2023-02-18T00:15:19.927Z,17.31
2023-02-18T00:16:20.952Z,17.36
2023-02-18T00:17:20.921Z,17.36
2023-02-18T00:18:20.945Z,17.33
2023-02-18T00:19:20.956Z,17.41
2023-02-18T00:20:20.965Z,17.43
2023-02-18T00:21:20.991Z,17.43
2023-02-18T00:22:20.979Z,17.41
2023-02-18T00:23:20.995Z,17.47
2023-02-18T00:24:21.005Z,17.45
2023-02-18T00:25:21.008Z,17.45
2023-02-18T00:26:20.064Z,17.44
2023-02-18T00:27:20.040Z,17.47
2023-02-18T00:28:21.060Z,17.47
2023-02-18T00:29:21.066Z,17.50
2023-02-18T00:30:20.127Z,17.50
2023-02-18T00:31:20.153Z,17.48
2023-02-18T00:32:21.088Z,17.50
2023-02-18T00:33:21.105Z,17.48
2023-02-18T00:34:20.129Z,17.51
2023-02-18T00:35:21.110Z,17.51
2023-02-18T00:36:21.116Z,17.51
2023-02-18T00:37:21.143Z,17.53
2023-02-18T00:38:21.175Z,17.53
2023-02-18T00:39:20.164Z,17.51
2023-02-18T00:40:21.189Z,17.53
2023-02-18T00:41:21.209Z,17.53
2023-02-18T00:42:21.223Z,17.55
2023-02-18T00:43:21.221Z,17.54
2023-02-18T00:44:21.225Z,17.54
2023-02-18T00:45:21.225Z,17.55
2023-02-18T00:46:20.263Z,17.57
2023-02-18T00:47:21.218Z,17.55
2023-02-18T00:48:21.260Z,17.55
2023-02-18T00:49:20.231Z,17.58
2023-02-18T00:50:21.229Z,17.57
2023-02-18T00:51:21.219Z,17.58
2023-02-18T00:52:21.227Z,17.58
2023-02-18T00:53:20.226Z,17.60
2023-02-18T00:54:20.233Z,17.60
2023-02-18T00:55:21.230Z,17.58
2023-02-18T00:56:21.245Z,17.58
2023-02-18T00:57:20.248Z,17.60
2023-02-18T00:58:20.278Z,17.58
2023-02-18T00:59:20.270Z,17.62
2023-02-18T01:00:20.271Z,17.60
2023-02-18T01:01:21.336Z,17.61
2023-02-18T01:02:20.280Z,17.61
2023-02-18T01:03:20.278Z,17.62
2023-02-18T01:04:20.345Z,17.61
2023-02-18T01:05:21.339Z,17.62
2023-02-18T01:06:20.283Z,17.62
2023-02-18T01:07:21.292Z,17.61
2023-02-18T01:08:21.302Z,17.61
2023-02-18T01:09:21.310Z,17.62
2023-02-18T01:10:21.327Z,17.64
2023-02-18T01:11:20.297Z,17.65
2023-02-18T01:12:21.290Z,17.62
2023-02-18T01:13:21.283Z,17.64
2023-02-18T01:14:21.305Z,17.68
2023-02-18T01:15:21.286Z,17.65
2023-02-18T01:16:21.323Z,17.67
2023-02-18T01:17:20.266Z,17.65
2023-02-18T01:18:21.268Z,17.65
2023-02-18T01:19:21.264Z,17.67
2023-02-18T01:20:20.265Z,17.70
2023-02-18T01:21:21.290Z,17.67
2023-02-18T01:22:21.281Z,17.68
2023-02-18T01:23:20.257Z,17.70
2023-02-18T01:24:21.269Z,17.68
2023-02-18T01:25:21.261Z,17.67
2023-02-18T01:26:21.287Z,17.68
2023-02-18T01:27:21.340Z,17.70
2023-02-18T01:28:21.282Z,17.68
2023-02-18T01:29:21.271Z,17.70
2023-02-18T01:30:20.340Z,17.70
2023-02-18T01:31:20.392Z,17.70
2023-02-18T01:32:20.298Z,17.67
2023-02-18T01:33:21.246Z,17.70
2023-02-18T01:34:21.304Z,17.72
2023-02-18T01:35:20.227Z,17.70
2023-02-18T01:36:21.235Z,17.68
2023-02-18T01:37:21.232Z,17.71
2023-02-18T01:38:21.239Z,17.71
2023-02-18T01:39:21.238Z,17.75
2023-02-18T01:40:20.243Z,17.72
2023-02-18T01:41:21.230Z,17.74
2023-02-18T01:42:20.219Z,17.72
2023-02-18T01:43:21.228Z,17.72
2023-02-18T01:44:21.223Z,17.72
2023-02-18T01:45:21.226Z,17.74
2023-02-18T01:46:21.305Z,17.74
2023-02-18T01:47:21.209Z,17.75
2023-02-18T01:48:21.224Z,17.75
2023-02-18T01:49:21.241Z,17.74
2023-02-18T01:50:21.243Z,17.75
2023-02-18T01:51:21.227Z,17.75
2023-02-18T01:52:21.224Z,17.75
2023-02-18T01:53:20.253Z,17.77
2023-02-18T01:54:21.244Z,17.77
2023-02-18T01:55:21.280Z,17.77
2023-02-18T01:56:21.376Z,17.75
2023-02-18T01:57:20.377Z,17.74
2023-02-18T01:58:21.447Z,17.77
2023-02-18T01:59:21.508Z,17.75
2023-02-18T02:00:21.543Z,17.80
2023-02-18T02:01:20.592Z,17.75
2023-02-18T02:02:20.651Z,17.77
2023-02-18T02:03:21.724Z,17.75
2023-02-18T02:04:20.801Z,17.77
2023-02-18T02:05:21.838Z,17.80
2023-02-18T02:06:21.871Z,17.78
2023-02-18T02:07:20.930Z,17.77
2023-02-18T02:08:21.989Z,17.78
2023-02-18T02:09:22.048Z,17.75
2023-02-18T02:10:22.133Z,17.80
2023-02-18T02:11:22.200Z,17.78
2023-02-18T02:12:21.222Z,17.77
2023-02-18T02:13:22.288Z,17.80
2023-02-18T02:14:21.339Z,17.80
2023-02-18T02:15:21.406Z,17.80
2023-02-18T02:16:22.487Z,17.78
2023-02-18T02:17:22.536Z,17.78
2023-02-18T02:18:21.611Z,17.81
2023-02-18T02:19:22.643Z,17.80
2023-02-18T02:20:21.710Z,17.78
2023-02-18T02:21:21.768Z,17.81
2023-02-18T02:22:22.866Z,17.80
2023-02-18T02:23:22.882Z,17.84
2023-02-18T02:24:22.971Z,17.82
2023-02-18T02:25:22.994Z,17.81
2023-02-18T02:26:23.025Z,17.82
2023-02-18T02:27:22.070Z,17.82
2023-02-18T02:28:23.136Z,17.84
2023-02-18T02:29:23.205Z,17.84
2023-02-18T02:30:22.279Z,17.84
2023-02-18T02:31:23.465Z,17.86
2023-02-18T02:32:22.361Z,17.85
2023-02-18T02:33:22.443Z,17.84
2023-02-18T02:34:23.464Z,17.84
2023-02-18T02:35:22.529Z,17.84
2023-02-18T02:36:23.595Z,17.85
2023-02-18T02:37:23.650Z,17.84
2023-02-18T02:38:22.695Z,17.85
2023-02-18T02:39:23.764Z,17.84
2023-02-18T02:40:25.227Z,17.88
2023-02-18T02:41:22.822Z,17.84
2023-02-18T02:42:22.834Z,17.86
2023-02-18T02:43:23.811Z,17.88
2023-02-18T02:44:23.821Z,17.88
2023-02-18T02:45:22.829Z,17.86
2023-02-18T02:46:23.795Z,17.85
2023-02-18T02:47:22.787Z,17.89
2023-02-18T02:48:23.061Z,17.88
2023-02-18T02:49:23.801Z,17.92
2023-02-18T02:50:23.802Z,17.89
2023-02-18T02:51:23.785Z,17.86
2023-02-18T02:52:23.754Z,17.89
2023-02-18T02:53:23.935Z,17.89
2023-02-18T02:54:23.839Z,17.91
2023-02-18T02:55:23.756Z,17.89
2023-02-18T02:56:23.732Z,17.91
2023-02-18T02:57:23.767Z,17.88
2023-02-18T02:58:22.702Z,17.89
2023-02-18T02:59:23.705Z,17.91
2023-02-18T03:00:23.724Z,17.92
2023-02-18T03:01:23.759Z,17.91
2023-02-18T03:02:23.686Z,17.91
2023-02-18T03:03:23.723Z,17.95
2023-02-18T03:04:22.734Z,17.92
2023-02-18T03:05:23.731Z,17.89
2023-02-18T03:06:22.694Z,17.91
2023-02-18T03:07:23.665Z,17.91
2023-02-18T03:08:23.700Z,17.91
2023-02-18T03:09:22.766Z,17.93
2023-02-18T03:10:23.842Z,17.93
2023-02-18T03:11:23.898Z,17.92
2023-02-18T03:12:23.946Z,17.93
2023-02-18T03:13:24.021Z,17.92
2023-02-18T03:14:24.060Z,17.92
2023-02-18T03:15:24.140Z,17.92
2023-02-18T03:16:24.476Z,17.92
2023-02-18T03:17:24.250Z,17.92
2023-02-18T03:18:24.324Z,17.93
2023-02-18T03:19:24.416Z,17.93
2023-02-18T03:20:23.455Z,17.92
2023-02-18T03:21:23.511Z,17.92
2023-02-18T03:22:23.550Z,17.92
2023-02-18T03:23:24.600Z,17.93
2023-02-18T03:24:24.695Z,17.93
2023-02-18T03:25:23.756Z,17.92
2023-02-18T03:26:24.844Z,17.93
2023-02-18T03:27:24.818Z,17.95
2023-02-18T03:28:24.872Z,17.93
2023-02-18T03:29:23.941Z,17.93
2023-02-18T03:30:25.045Z,17.95
2023-02-18T03:31:24.131Z,17.93
2023-02-18T03:32:25.100Z,17.92
2023-02-18T03:33:25.158Z,17.93
2023-02-18T03:34:24.203Z,17.92
2023-02-18T03:35:24.290Z,17.93
2023-02-18T03:36:24.344Z,17.92
2023-02-18T03:37:25.436Z,17.93
2023-02-18T03:38:25.465Z,17.95
2023-02-18T03:39:24.520Z,17.95
2023-02-18T03:40:25.588Z,17.93
2023-02-18T03:41:24.632Z,17.91
2023-02-18T03:42:25.718Z,17.92
2023-02-18T03:43:24.750Z,17.95
2023-02-18T03:44:24.816Z,17.92
2023-02-18T03:45:24.891Z,17.93
2023-02-18T03:46:26.017Z,17.92
2023-02-18T03:47:25.001Z,17.96
2023-02-18T03:48:25.073Z,17.93
2023-02-18T03:49:26.155Z,17.91
2023-02-18T03:50:26.201Z,17.98
2023-02-18T03:51:26.514Z,17.95
2023-02-18T03:52:26.323Z,17.95
2023-02-18T03:53:26.402Z,17.96
2023-02-18T03:54:26.468Z,17.99
2023-02-18T03:55:25.505Z,17.96
2023-02-18T03:56:25.563Z,17.95
2023-02-18T03:57:26.636Z,17.93
2023-02-18T03:58:25.719Z,17.96
2023-02-18T03:59:26.744Z,17.98
2023-02-18T04:00:26.809Z,17.98
2023-02-18T04:01:25.995Z,17.95
2023-02-18T04:02:25.905Z,17.96
2023-02-18T04:03:25.950Z,17.96
2023-02-18T04:04:27.030Z,17.96
2023-02-18T04:05:26.049Z,17.95
2023-02-18T04:06:26.114Z,17.93
2023-02-18T04:07:26.145Z,17.95
2023-02-18T04:08:27.212Z,17.99
2023-02-18T04:09:26.280Z,17.95
2023-02-18T04:10:27.317Z,17.96
2023-02-18T04:11:27.374Z,17.98
2023-02-18T04:12:27.399Z,17.98
2023-02-18T04:13:26.460Z,17.98
2023-02-18T04:14:27.494Z,17.98
2023-02-18T04:15:26.531Z,17.95
2023-02-18T04:16:26.585Z,17.96
2023-02-18T04:17:26.621Z,17.96
2023-02-18T04:18:26.678Z,17.96
2023-02-18T04:19:26.715Z,17.98
2023-02-18T04:20:27.744Z,18.01
2023-02-18T04:21:27.784Z,17.98
2023-02-18T04:22:27.853Z,17.96
2023-02-18T04:23:27.936Z,17.99
2023-02-18T04:24:27.992Z,17.98
2023-02-18T04:25:27.036Z,17.99
2023-02-18T04:26:27.018Z,17.96
2023-02-18T04:27:28.070Z,17.96
2023-02-18T04:28:28.116Z,18.02
2023-02-18T04:29:27.169Z,18.01
2023-02-18T04:30:28.342Z,17.98
2023-02-18T04:31:28.455Z,18.01
2023-02-18T04:32:28.296Z,18.01
2023-02-18T04:33:28.416Z,17.99
2023-02-18T04:34:27.422Z,17.99
2023-02-18T04:35:28.463Z,18.01
2023-02-18T04:36:28.474Z,18.01
2023-02-18T04:37:27.526Z,18.01
2023-02-18T04:38:28.562Z,17.99
2023-02-18T04:39:28.635Z,17.99
2023-02-18T04:40:27.723Z,18.01
2023-02-18T04:41:28.737Z,18.01
2023-02-18T04:42:28.808Z,18.02
2023-02-18T04:43:28.825Z,17.99
2023-02-18T04:44:28.833Z,18.02
2023-02-18T04:45:28.905Z,17.99
2023-02-18T04:46:29.004Z,18.02
2023-02-18T04:47:28.016Z,18.01
2023-02-18T04:48:29.038Z,18.02
2023-02-18T04:49:29.101Z,18.03
2023-02-18T04:50:29.167Z,18.02
2023-02-18T04:51:28.158Z,18.03
2023-02-18T04:52:29.204Z,17.99
2023-02-18T04:53:29.240Z,17.99
2023-02-18T04:54:28.371Z,18.03
2023-02-18T04:55:28.369Z,18.01
2023-02-18T04:56:28.421Z,18.01
2023-02-18T04:57:29.454Z,18.03
2023-02-18T04:58:28.475Z,18.01
2023-02-18T04:59:29.540Z,18.03
2023-02-18T05:00:29.584Z,18.03
2023-02-18T05:01:29.725Z,18.03
2023-02-18T05:02:28.671Z,18.02
2023-02-18T05:03:29.713Z,18.02
2023-02-18T05:04:29.828Z,18.02
2023-02-18T05:05:28.853Z,18.03
2023-02-18T05:06:29.846Z,18.01
2023-02-18T05:07:29.903Z,18.03
2023-02-18T05:08:29.935Z,18.01
2023-02-18T05:09:30.007Z,18.03
2023-02-18T05:10:29.043Z,18.02
2023-02-18T05:11:30.125Z,18.05
2023-02-18T05:12:29.205Z,18.02
2023-02-18T05:13:30.268Z,18.09
2023-02-18T05:14:30.310Z,18.05
2023-02-18T05:15:30.450Z,18.02
2023-02-18T05:16:30.502Z,18.06
2023-02-18T05:17:29.567Z,18.03
2023-02-18T05:18:29.601Z,18.03
2023-02-18T05:19:30.627Z,18.06
2023-02-18T05:20:29.725Z,18.03
2023-02-18T05:21:30.750Z,18.05
2023-02-18T05:22:30.820Z,18.06
2023-02-18T05:23:30.860Z,18.06
2023-02-18T05:24:30.947Z,18.06
2023-02-18T05:25:30.001Z,18.05
2023-02-18T05:26:31.058Z,18.05
2023-02-18T05:27:31.122Z,18.06
2023-02-18T05:28:30.163Z,18.08
2023-02-18T05:29:31.258Z,18.08
2023-02-18T05:30:31.404Z,18.06
2023-02-18T05:31:30.515Z,18.05
2023-02-18T05:32:31.434Z,18.08
2023-02-18T05:33:31.466Z,18.08
2023-02-18T05:34:30.514Z,18.05
2023-02-18T05:35:30.600Z,18.05
2023-02-18T05:36:31.660Z,18.02
2023-02-18T05:37:31.769Z,18.06
2023-02-18T05:38:31.773Z,18.06
2023-02-18T05:39:31.850Z,18.06
2023-02-18T05:40:31.901Z,18.05
2023-02-18T05:41:30.968Z,18.05
2023-02-18T05:42:32.092Z,18.06
2023-02-18T05:43:32.110Z,18.09
2023-02-18T05:44:32.184Z,18.08
2023-02-18T05:45:32.229Z,18.06
2023-02-18T05:46:32.354Z,18.05
2023-02-18T05:47:32.348Z,18.06
2023-02-18T05:48:32.390Z,18.05
2023-02-18T05:49:32.507Z,18.05
2023-02-18T05:50:32.521Z,18.06
2023-02-18T05:51:32.607Z,18.05
2023-02-18T05:52:31.637Z,18.10
2023-02-18T05:53:31.705Z,18.10
2023-02-18T05:54:32.782Z,18.09
2023-02-18T05:55:32.831Z,18.08
2023-02-18T05:56:32.874Z,18.09
2023-02-18T05:57:32.922Z,18.09
2023-02-18T05:58:32.981Z,18.09
2023-02-18T05:59:33.066Z,18.09
2023-02-18T06:00:33.107Z,18.06
2023-02-18T06:01:33.195Z,18.08
2023-02-18T06:02:33.261Z,18.06
2023-02-18T06:03:32.272Z,18.08
2023-02-18T06:04:32.330Z,18.10
2023-02-18T06:05:33.445Z,18.09
2023-02-18T06:06:33.435Z,18.12
2023-02-18T06:07:33.479Z,18.09
2023-02-18T06:08:32.527Z,18.10
2023-02-18T06:09:33.575Z,18.10
2023-02-18T06:10:32.662Z,18.10
2023-02-18T06:11:33.685Z,18.12
2023-02-18T06:12:32.733Z,18.10
2023-02-18T06:13:32.786Z,18.10
2023-02-18T06:14:33.862Z,18.13
2023-02-18T06:15:32.906Z,18.12
2023-02-18T06:16:33.060Z,18.10
2023-02-18T06:17:33.983Z,18.12
2023-02-18T06:18:34.051Z,18.13
2023-02-18T06:19:34.104Z,18.12
2023-02-18T06:20:34.141Z,18.10
2023-02-18T06:21:33.205Z,18.10
2023-02-18T06:22:34.263Z,18.10
2023-02-18T06:23:34.341Z,18.10
2023-02-18T06:24:34.397Z,18.12
2023-02-18T06:25:34.451Z,18.12
2023-02-18T06:26:34.496Z,18.12
2023-02-18T06:27:34.532Z,18.12
2023-02-18T06:28:34.601Z,18.10
2023-02-18T06:29:34.646Z,18.15
2023-02-18T06:30:33.738Z,18.16
2023-02-18T06:31:34.897Z,18.12
2023-02-18T06:32:34.819Z,18.13
2023-02-18T06:33:34.879Z,18.12
2023-02-18T06:34:34.910Z,18.15
2023-02-18T06:35:33.978Z,18.13
2023-02-18T06:36:35.022Z,18.13
2023-02-18T06:37:34.116Z,18.13
2023-02-18T06:38:35.132Z,18.15
2023-02-18T06:39:35.191Z,18.13
2023-02-18T06:40:34.218Z,18.15
2023-02-18T06:41:35.306Z,18.15
2023-02-18T06:42:35.335Z,18.13
2023-02-18T06:43:35.401Z,18.12
2023-02-18T06:44:36.344Z,18.15
2023-02-18T06:45:35.426Z,18.16
2023-02-18T06:46:35.478Z,18.17
2023-02-18T06:47:35.426Z,18.13
2023-02-18T06:48:35.406Z,18.13
2023-02-18T06:49:35.386Z,18.12
2023-02-18T06:50:35.396Z,18.16
2023-02-18T06:51:35.377Z,18.15
2023-02-18T06:52:34.381Z,18.16
2023-02-18T06:53:35.396Z,18.15
2023-02-18T06:54:35.380Z,18.15
2023-02-18T06:55:35.346Z,18.13
2023-02-18T06:56:35.360Z,18.19
2023-02-18T06:57:35.339Z,18.15
2023-02-18T06:58:35.369Z,18.13
2023-02-18T06:59:35.339Z,18.15
2023-02-18T07:00:35.423Z,18.15
2023-02-18T07:01:34.315Z,18.13
2023-02-18T07:02:34.310Z,18.16
2023-02-18T07:03:35.347Z,18.15
2023-02-18T07:04:35.507Z,18.13
2023-02-18T07:05:35.304Z,18.16
2023-02-18T07:06:35.284Z,18.15
2023-02-18T07:07:35.270Z,18.13
2023-02-18T07:08:35.281Z,18.15
2023-02-18T07:09:34.309Z,18.16
2023-02-18T07:10:34.361Z,18.16
2023-02-18T07:11:35.529Z,18.15
2023-02-18T07:12:34.455Z,18.15
2023-02-18T07:13:35.556Z,18.15
2023-02-18T07:14:34.553Z,18.13
2023-02-18T07:15:34.613Z,18.13
2023-02-18T07:16:35.733Z,18.17
2023-02-18T07:17:34.763Z,18.16
2023-02-18T07:18:35.830Z,18.16
2023-02-18T07:19:35.855Z,18.16
2023-02-18T07:20:34.913Z,18.16
2023-02-18T07:21:35.939Z,18.16
2023-02-18T07:22:34.980Z,18.16
2023-02-18T07:23:36.065Z,18.15
2023-02-18T07:24:36.098Z,18.17
2023-02-18T07:25:36.153Z,18.16
2023-02-18T07:26:36.199Z,18.19
2023-02-18T07:27:36.265Z,18.16
2023-02-18T07:28:36.348Z,18.20
2023-02-18T07:29:35.377Z,18.20
2023-02-18T07:30:36.512Z,18.17
2023-02-18T07:31:35.605Z,18.20
2023-02-18T07:32:36.569Z,18.20
2023-02-18T07:33:35.613Z,18.19
2023-02-18T07:34:35.666Z,18.20
2023-02-18T07:35:35.717Z,18.23
2023-02-18T07:36:35.745Z,18.20
2023-02-18T07:37:36.803Z,18.22
2023-02-18T07:38:35.847Z,18.22
2023-02-18T07:39:36.926Z,18.23
2023-02-18T07:40:36.952Z,18.25
2023-02-18T07:41:36.009Z,18.23
2023-02-18T07:42:37.066Z,18.25
2023-02-18T07:43:37.077Z,18.28
2023-02-18T07:44:37.165Z,18.28
2023-02-18T07:45:37.240Z,18.28
2023-02-18T07:46:36.223Z,18.30
2023-02-18T07:47:37.282Z,18.29
2023-02-18T07:48:37.304Z,18.29
2023-02-18T07:49:37.357Z,18.29
2023-02-18T07:50:36.394Z,18.29
2023-02-18T07:51:37.464Z,18.32
2023-02-18T07:52:37.495Z,18.29
2023-02-18T07:53:37.626Z,18.28
2023-02-18T07:54:36.563Z,18.28
2023-02-18T07:55:37.590Z,18.28
2023-02-18T07:56:37.630Z,18.30
2023-02-18T07:57:36.689Z,18.28
2023-02-18T07:58:37.732Z,18.29
2023-02-18T07:59:37.791Z,18.28
2023-02-18T08:00:37.834Z,18.32
2023-02-18T08:01:37.874Z,18.30
2023-02-18T08:02:36.919Z,18.26
2023-02-18T08:03:37.972Z,18.29
2023-02-18T08:04:37.035Z,18.30
2023-02-18T08:05:37.085Z,18.30
2023-02-18T08:06:38.157Z,18.33
2023-02-18T08:07:38.211Z,18.30
2023-02-18T08:08:38.237Z,18.30
2023-02-18T08:09:38.264Z,18.33
2023-02-18T08:10:37.319Z,18.33
2023-02-18T08:11:38.374Z,18.32
2023-02-18T08:12:38.414Z,18.32
2023-02-18T08:13:38.493Z,18.35
2023-02-18T08:14:37.489Z,18.35
2023-02-18T08:15:38.553Z,18.33
2023-02-18T08:16:37.609Z,18.39
2023-02-18T08:17:37.590Z,18.37
2023-02-18T08:18:38.644Z,18.35
2023-02-18T08:19:38.779Z,18.36
2023-02-18T08:20:37.715Z,18.39
2023-02-18T08:21:37.762Z,18.40
2023-02-18T08:22:38.768Z,18.39
2023-02-18T08:23:38.872Z,18.39
2023-02-18T08:24:37.834Z,18.37
2023-02-18T08:25:38.877Z,18.39
2023-02-18T08:26:42.501Z,18.37
2023-02-18T08:27:38.894Z,18.39
2023-02-18T08:28:38.898Z,18.40
2023-02-18T08:29:38.900Z,18.43
2023-02-18T08:30:37.978Z,18.57
2023-02-18T08:31:38.107Z,18.71
2023-02-18T08:32:38.863Z,18.84
2023-02-18T08:33:37.857Z,18.88
2023-02-18T08:34:37.853Z,18.91
2023-02-18T08:35:38.863Z,18.99
2023-02-18T08:36:37.840Z,19.05
2023-02-18T08:37:52.656Z,19.08
2023-02-18T08:38:38.829Z,19.15
2023-02-18T08:39:39.968Z,19.18
2023-02-18T08:40:38.816Z,19.22
2023-02-18T08:41:37.814Z,19.23
2023-02-18T08:42:38.814Z,19.27
2023-02-18T08:43:38.825Z,19.37
2023-02-18T08:44:38.890Z,19.39
2023-02-18T08:45:38.956Z,19.45
2023-02-18T08:46:39.060Z,19.50
2023-02-18T08:48:16.151Z,19.53
2023-02-18T08:48:39.027Z,19.64
2023-02-18T08:49:39.016Z,19.63
2023-02-18T08:50:39.025Z,19.59
2023-02-18T08:51:39.003Z,19.63
2023-02-18T08:52:38.013Z,19.64
2023-02-18T08:53:38.990Z,19.63
2023-02-18T08:54:38.999Z,19.71
2023-02-18T08:55:38.052Z,19.71
2023-02-18T08:56:37.984Z,19.76
2023-02-18T08:57:37.971Z,19.80
2023-02-18T08:58:37.988Z,19.82
2023-02-18T08:59:38.965Z,19.81
2023-02-18T09:00:39.020Z,19.88
2023-02-18T09:01:39.106Z,19.91
2023-02-18T09:02:37.926Z,19.97
2023-02-18T09:03:37.941Z,19.97
2023-02-18T09:04:38.936Z,19.97
2023-02-18T09:05:37.924Z,20.01
2023-02-18T09:06:38.943Z,19.98
2023-02-18T09:07:38.912Z,20.07
2023-02-18T09:08:37.905Z,20.08
2023-02-18T09:09:38.903Z,20.05
2023-02-18T09:10:37.915Z,20.07
2023-02-18T09:11:39.199Z,20.11
2023-02-18T09:12:38.896Z,20.09
2023-02-18T09:13:38.921Z,20.15
2023-02-18T09:14:37.865Z,20.11
2023-02-18T09:15:38.933Z,20.09
2023-02-18T09:16:38.865Z,20.18
2023-02-18T09:17:37.845Z,20.24
2023-02-18T09:18:38.838Z,20.19
2023-02-18T09:19:38.831Z,20.29
2023-02-18T09:20:37.839Z,20.25
2023-02-18T09:21:38.835Z,20.25
2023-02-18T09:22:37.823Z,20.28
2023-02-18T09:23:38.833Z,20.32
2023-02-18T09:24:38.788Z,20.31
2023-02-18T09:25:37.796Z,20.32
2023-02-18T09:26:38.823Z,20.35
2023-02-18T09:27:38.870Z,20.40
2023-02-18T09:28:38.880Z,20.46
2023-02-18T09:29:37.889Z,20.49
2023-02-18T09:30:38.986Z,20.47
2023-02-18T09:31:38.983Z,20.53
2023-02-18T09:32:38.992Z,20.59
2023-02-18T09:33:38.960Z,20.52
2023-02-18T09:34:38.953Z,20.65
2023-02-18T09:35:38.978Z,20.56
2023-02-18T09:36:37.983Z,20.62
2023-02-18T09:37:38.998Z,20.66
2023-02-18T09:38:39.003Z,20.63
2023-02-18T09:39:39.035Z,20.69
2023-02-18T09:40:39.007Z,20.73
2023-02-18T09:41:39.000Z,20.70
2023-02-18T09:42:39.020Z,20.73
2023-02-18T09:43:38.011Z,20.76
2023-02-18T09:44:39.001Z,20.82
2023-02-18T09:45:38.075Z,20.84
2023-02-18T09:46:39.105Z,20.87
2023-02-18T09:47:39.144Z,20.84
2023-02-18T09:48:38.233Z,20.91
2023-02-18T09:49:39.277Z,20.91
2023-02-18T09:50:39.414Z,20.90
2023-02-18T09:51:38.432Z,20.93
2023-02-18T09:52:39.476Z,20.91
2023-02-18T09:53:39.526Z,21.04
2023-02-18T09:54:39.565Z,20.98
2023-02-18T09:55:39.635Z,20.97
2023-02-18T09:56:40.650Z,20.97
2023-02-18T09:57:39.759Z,20.95
2023-02-18T09:58:39.807Z,21.00
2023-02-18T09:59:38.883Z,20.93
2023-02-18T10:00:39.906Z,20.91
2023-02-18T10:01:39.038Z,20.97
2023-02-18T10:02:40.032Z,20.93
2023-02-18T10:03:40.074Z,20.94
2023-02-18T10:04:39.156Z,21.03
2023-02-18T10:05:40.174Z,21.00
2023-02-18T10:06:39.212Z,21.01
2023-02-18T10:07:40.242Z,21.03
2023-02-18T10:08:39.270Z,21.04
2023-02-18T10:09:42.120Z,21.07
2023-02-18T10:10:39.283Z,21.05
2023-02-18T10:11:40.319Z,21.04
2023-02-18T10:12:40.292Z,20.97
2023-02-18T10:13:40.273Z,21.03
2023-02-18T10:14:40.299Z,21.04
2023-02-18T10:15:40.309Z,21.00
2023-02-18T10:16:40.250Z,21.04
2023-02-18T10:17:40.228Z,20.98
2023-02-18T10:18:39.228Z,20.95
2023-02-18T10:19:40.246Z,20.91
2023-02-18T10:20:39.258Z,20.93
2023-02-18T10:21:39.234Z,20.93
2023-02-18T10:22:40.204Z,20.97
2023-02-18T10:23:40.195Z,20.95
2023-02-18T10:24:40.201Z,20.98
2023-02-18T10:25:40.171Z,21.00
2023-02-18T10:26:39.214Z,20.98
2023-02-18T10:27:40.197Z,20.97
2023-02-18T10:28:40.185Z,21.04
2023-02-18T10:29:39.153Z,21.01
2023-02-18T10:30:40.145Z,21.00
2023-02-18T10:31:40.286Z,21.00
2023-02-18T10:32:40.145Z,21.01
2023-02-18T10:33:40.130Z,21.03
2023-02-18T10:34:39.127Z,21.03
2023-02-18T10:35:40.140Z,21.01
2023-02-18T10:36:39.244Z,21.11
2023-02-18T10:37:40.101Z,21.04
2023-02-18T10:38:40.097Z,21.08
2023-02-18T10:39:40.107Z,21.08
2023-02-18T10:40:40.097Z,21.08
2023-02-18T10:41:40.108Z,21.05
2023-02-18T10:42:40.139Z,21.07
2023-02-18T10:43:40.196Z,21.15
2023-02-18T10:44:40.214Z,21.14
2023-02-18T10:45:40.261Z,21.15
2023-02-18T10:46:40.358Z,21.18
2023-02-18T10:47:40.375Z,21.21
2023-02-18T10:48:40.337Z,21.24
2023-02-18T10:49:40.352Z,21.21
2023-02-18T10:50:40.425Z,21.17
2023-02-18T10:51:40.433Z,21.14
2023-02-18T10:52:40.475Z,21.17
2023-02-18T10:53:40.475Z,21.21
2023-02-18T10:54:40.495Z,21.17
2023-02-18T10:55:40.515Z,21.21
2023-02-18T10:56:39.680Z,21.27
2023-02-18T10:57:39.569Z,21.25
2023-02-18T10:58:40.565Z,21.31
2023-02-18T10:59:40.585Z,21.32
2023-02-18T11:00:40.577Z,21.42
2023-02-18T11:01:39.729Z,21.32
2023-02-18T11:02:40.640Z,21.31
2023-02-18T11:03:40.657Z,21.44
2023-02-18T11:04:39.833Z,21.42
2023-02-18T11:05:40.658Z,21.41
2023-02-18T11:06:40.660Z,21.41
2023-02-18T11:07:40.684Z,21.53
2023-02-18T11:08:40.658Z,21.48
2023-02-18T11:09:40.675Z,21.55
2023-02-18T11:10:39.661Z,21.60
2023-02-18T11:11:40.657Z,21.58
2023-02-18T11:12:39.719Z,21.58
2023-02-18T11:13:39.686Z,21.62
2023-02-18T11:14:39.674Z,21.55
2023-02-18T11:15:40.685Z,21.65
2023-02-18T11:16:40.734Z,21.63
2023-02-18T11:17:40.736Z,21.66
2023-02-18T11:18:40.778Z,21.73
2023-02-18T11:19:40.840Z,21.66
2023-02-18T11:20:40.850Z,21.66
2023-02-18T11:21:40.878Z,21.66
2023-02-18T11:22:39.917Z,21.69
2023-02-18T11:23:39.947Z,21.73
2023-02-18T11:24:40.975Z,21.66
2023-02-18T11:25:40.034Z,21.68
2023-02-18T11:26:41.069Z,21.65
2023-02-18T11:27:41.124Z,21.66
2023-02-18T11:28:40.161Z,21.66
2023-02-18T11:29:41.225Z,21.75
2023-02-18T11:30:41.327Z,21.73
2023-02-18T11:31:41.412Z,21.73
2023-02-18T11:32:41.389Z,21.72
2023-02-18T11:33:41.448Z,21.83
2023-02-18T11:34:40.491Z,21.83
2023-02-18T11:35:42.359Z,21.86
2023-02-18T11:36:41.619Z,21.85
2023-02-18T11:37:41.671Z,21.83
2023-02-18T11:38:41.721Z,21.87
2023-02-18T11:39:41.797Z,21.89
2023-02-18T11:40:41.845Z,21.93
2023-02-18T11:41:41.916Z,21.89
2023-02-18T11:42:41.933Z,21.86
2023-02-18T11:43:42.032Z,21.89
2023-02-18T11:44:42.041Z,21.93
2023-02-18T11:45:42.120Z,21.96
2023-02-18T11:46:42.275Z,21.99
2023-02-18T11:47:42.176Z,22.00
2023-02-18T11:48:42.246Z,22.01
2023-02-18T11:49:41.290Z,21.97
2023-02-18T11:50:42.328Z,21.96
2023-02-18T11:51:42.410Z,21.93
2023-02-18T11:52:42.447Z,21.95
2023-02-18T11:53:42.498Z,21.99
2023-02-18T11:54:42.538Z,22.04
2023-02-18T11:55:41.609Z,22.00
2023-02-18T11:56:42.627Z,22.03
2023-02-18T11:57:41.698Z,22.06
2023-02-18T11:58:41.748Z,22.00
2023-02-18T11:59:42.790Z,22.04
2023-02-18T12:00:41.840Z,22.07
2023-02-18T12:01:42.921Z,22.08
2023-02-18T12:02:41.944Z,22.01
2023-02-18T12:03:43.002Z,22.03
2023-02-18T12:04:42.020Z,22.08
2023-02-18T12:05:43.085Z,22.01
2023-02-18T12:06:43.121Z,21.97
2023-02-18T12:07:42.241Z,22.03
2023-02-18T12:08:43.234Z,21.99
2023-02-18T12:09:43.259Z,21.97
2023-02-18T12:10:43.324Z,21.99
2023-02-18T12:11:43.385Z,22.01
2023-02-18T12:12:43.417Z,22.00
2023-02-18T12:13:42.441Z,22.01
2023-02-18T12:14:42.464Z,22.01
2023-02-18T12:15:43.501Z,21.97
2023-02-18T12:16:42.633Z,21.93
2023-02-18T12:17:43.936Z,22.01
2023-02-18T12:18:43.001Z,21.97
2023-02-18T12:19:43.676Z,22.00
2023-02-18T12:20:43.708Z,22.04
2023-02-18T12:21:43.750Z,21.95
2023-02-18T12:22:43.810Z,22.00
2023-02-18T12:23:45.737Z,22.08
2023-02-18T12:24:43.813Z,22.07
2023-02-18T12:25:42.848Z,22.06
2023-02-18T12:26:43.815Z,22.04
2023-02-18T12:27:43.785Z,22.01
2023-02-18T12:28:43.780Z,22.04
2023-02-18T12:29:43.798Z,22.07
2023-02-18T12:30:43.817Z,22.01
2023-02-18T12:31:42.873Z,22.04
2023-02-18T12:32:43.764Z,22.10
2023-02-18T12:33:42.762Z,22.03
2023-02-18T12:34:42.762Z,22.00
2023-02-18T12:35:43.747Z,22.07
2023-02-18T12:36:43.730Z,22.03
2023-02-18T12:37:42.737Z,22.16
2023-02-18T12:38:42.712Z,22.13
2023-02-18T12:39:43.755Z,22.06
2023-02-18T12:40:43.707Z,22.07
2023-02-18T12:41:42.760Z,22.03
2023-02-18T12:42:43.692Z,22.06
2023-02-18T12:43:43.690Z,22.11
2023-02-18T12:44:45.379Z,22.07
2023-02-18T12:45:43.724Z,22.07
2023-02-18T12:46:43.673Z,21.97
2023-02-18T12:47:43.657Z,21.97
2023-02-18T12:48:43.663Z,22.01
2023-02-18T12:49:43.644Z,21.97
2023-02-18T12:50:43.641Z,22.00
2023-02-18T12:51:42.650Z,21.93
2023-02-18T12:52:43.632Z,21.92